LAN810 YSSY-SCEL
Flight info
| Callsign | LAN810 |
|---|---|
| Flight time | N/A |
| Altitude | 31000 |
| Route | KEVIN7/16L OPTIC Y84 TONIM DCT 4028S15757E/N0503F350 4314S16024E 4500S16235E 4520S16300E 4701S16518E 49S169E 5106S17455E 5150S17748E 5240S17721W 5258S17430W 5250S16529W 5208S15934W 5106S15151W 5018S14311W 4948S13451W/N0487F370 4924S13100W 4844S12625W 4809S12256W 4744S12000W 4716S11711W 4605S11031W 4558S11000W 4407S10253W 4310S10000W 4229S09806W 4108S09309W/N0479F390 4024S09000W 3916S08551W 3830S08250W 3742S08000W 3740S07954W 3626S07502W 3626S07500W DCT SOSTA DCT ALGEK/N0474F380 UQ808 EROLO |
| Aircraft | B77W/H-SDE1E2E3FGHIJ2J3J4J5M1RWXY/LB1D1 |
Departure
| Time | 2026-05-05 09:42 |
|---|---|
| Airport | Sydney Kingsford Smith International Airport (YSSY) |
Arrival
| Time | N/A |
|---|---|
| Airport | Comodoro Arturo Merino Benítez International Airport (SCEL) |
| Time | Latitude | Longitude | Altitude | Speed | Heading |
|---|---|---|---|---|---|
| 2026-05-05 09:12 | -33.93825 | 151.16633 | 35 ft | 0 kts | 254° |
| 2026-05-05 09:29 | -33.93822 | 151.16646 | 35 ft | 4 kts | 256° |
| 2026-05-05 09:29 | -33.93816 | 151.16678 | 33 ft | 4 kts | 256° |
| 2026-05-05 09:29 | -33.93807 | 151.16707 | 34 ft | 4 kts | 225° |
| 2026-05-05 09:30 | -33.93804 | 151.16714 | 35 ft | 4 kts | 189° |
| 2026-05-05 09:30 | -33.93827 | 151.16726 | 35 ft | 4 kts | 147° |
| 2026-05-05 09:30 | -33.93849 | 151.16744 | 35 ft | 4 kts | 150° |
| 2026-05-05 09:30 | -33.93874 | 151.16756 | 35 ft | 4 kts | 162° |
| 2026-05-05 09:31 | -33.93896 | 151.16763 | 35 ft | 4 kts | 164° |
| 2026-05-05 09:31 | -33.93922 | 151.16773 | 35 ft | 4 kts | 163° |
| 2026-05-05 09:31 | -33.93945 | 151.16781 | 35 ft | 2 kts | 164° |
| 2026-05-05 09:31 | -33.93946 | 151.16781 | 35 ft | 0 kts | 164° |
| 2026-05-05 09:33 | -33.93947 | 151.16782 | 35 ft | 0 kts | 164° |
| 2026-05-05 09:34 | -33.93948 | 151.16782 | 35 ft | 0 kts | 164° |
| 2026-05-05 09:34 | -33.93956 | 151.16785 | 35 ft | 3 kts | 164° |
| 2026-05-05 09:34 | -33.94000 | 151.16800 | 35 ft | 13 kts | 163° |
| 2026-05-05 09:34 | -33.94051 | 151.16832 | 35 ft | 7 kts | 123° |
| 2026-05-05 09:35 | -33.94049 | 151.16894 | 34 ft | 8 kts | 76° |
| 2026-05-05 09:35 | -33.94020 | 151.17014 | 34 ft | 8 kts | 73° |
| 2026-05-05 09:35 | -33.94005 | 151.17075 | 34 ft | 8 kts | 74° |
| 2026-05-05 09:36 | -33.93989 | 151.17142 | 34 ft | 8 kts | 74° |
| 2026-05-05 09:36 | -33.93962 | 151.17203 | 34 ft | 8 kts | 36° |
| 2026-05-05 09:36 | -33.93904 | 151.17205 | 33 ft | 8 kts | 351° |
| 2026-05-05 09:36 | -33.93846 | 151.17192 | 33 ft | 8 kts | 348° |
| 2026-05-05 09:37 | -33.93789 | 151.17177 | 33 ft | 8 kts | 348° |
| 2026-05-05 09:37 | -33.93731 | 151.17162 | 34 ft | 8 kts | 347° |
| 2026-05-05 09:37 | -33.93673 | 151.17146 | 34 ft | 8 kts | 347° |
| 2026-05-05 09:37 | -33.93615 | 151.17131 | 34 ft | 9 kts | 348° |
| 2026-05-05 09:38 | -33.93516 | 151.17106 | 34 ft | 18 kts | 348° |
| 2026-05-05 09:38 | -33.93393 | 151.17074 | 34 ft | 18 kts | 346° |
| 2026-05-05 09:38 | -33.93287 | 151.16997 | 34 ft | 18 kts | 316° |
| 2026-05-05 09:38 | -33.93171 | 151.16941 | 34 ft | 18 kts | 346° |
| 2026-05-05 09:39 | -33.93063 | 151.16911 | 35 ft | 10 kts | 350° |
| 2026-05-05 09:39 | -33.92999 | 151.16932 | 33 ft | 10 kts | 44° |
| 2026-05-05 09:39 | -33.92976 | 151.16998 | 35 ft | 6 kts | 76° |
| 2026-05-05 09:39 | -33.92973 | 151.17012 | 35 ft | 1 kts | 76° |
| 2026-05-05 09:40 | -33.92972 | 151.17018 | 35 ft | 1 kts | 76° |
| 2026-05-05 09:40 | -33.92969 | 151.17033 | 35 ft | 4 kts | 76° |
| 2026-05-05 09:40 | -33.92960 | 151.17093 | 35 ft | 12 kts | 85° |
| 2026-05-05 09:40 | -33.92998 | 151.17171 | 35 ft | 11 kts | 152° |
| 2026-05-05 09:41 | -33.93092 | 151.17199 | 35 ft | 21 kts | 168° |
| 2026-05-05 09:41 | -33.93347 | 151.17265 | 33 ft | 67 kts | 168° |
| 2026-05-05 09:41 | -33.94049 | 151.17447 | 31 ft | 137 kts | 168° |
| 2026-05-05 09:41 | -33.95188 | 151.17738 | 34 ft | 194 kts | 168° |
| 2026-05-05 09:42 | -33.96586 | 151.18102 | 409 ft | 206 kts | 169° |
| 2026-05-05 09:42 | -33.98045 | 151.18390 | 836 ft | 218 kts | 185° |
| 2026-05-05 09:42 | -33.99523 | 151.18088 | 1375 ft | 222 kts | 191° |
| 2026-05-05 09:42 | -34.01059 | 151.17796 | 1878 ft | 227 kts | 189° |
| 2026-05-05 09:43 | -34.02656 | 151.17551 | 2220 ft | 239 kts | 182° |
| 2026-05-05 09:43 | -34.04328 | 151.17959 | 2409 ft | 254 kts | 162° |
| 2026-05-05 09:43 | -34.06033 | 151.18628 | 2920 ft | 259 kts | 166° |
| 2026-05-05 09:43 | -34.07787 | 151.19217 | 3575 ft | 262 kts | 166° |
| 2026-05-05 09:44 | -34.09552 | 151.19798 | 4270 ft | 264 kts | 166° |
| 2026-05-05 09:44 | -34.11334 | 151.20389 | 4932 ft | 266 kts | 166° |
| 2026-05-05 09:44 | -34.13133 | 151.20990 | 5516 ft | 272 kts | 166° |
| 2026-05-05 09:44 | -34.14978 | 151.21604 | 6050 ft | 278 kts | 167° |
| 2026-05-05 09:45 | -34.16858 | 151.22230 | 6611 ft | 283 kts | 167° |
| 2026-05-05 09:45 | -34.18756 | 151.22920 | 7103 ft | 287 kts | 158° |
| 2026-05-05 09:45 | -34.20336 | 151.24377 | 7495 ft | 296 kts | 125° |
| 2026-05-05 09:45 | -34.21203 | 151.26629 | 8012 ft | 298 kts | 110° |
| 2026-05-05 09:46 | -34.21909 | 151.29006 | 8510 ft | 303 kts | 111° |
| 2026-05-05 09:46 | -34.22640 | 151.31417 | 9064 ft | 307 kts | 111° |
| 2026-05-05 09:46 | -34.23383 | 151.33863 | 9614 ft | 311 kts | 111° |
| 2026-05-05 09:46 | -34.24132 | 151.36323 | 10190 ft | 314 kts | 111° |
| 2026-05-05 09:47 | -34.24903 | 151.38856 | 10421 ft | 330 kts | 111° |
| 2026-05-05 09:47 | -34.25720 | 151.41527 | 10579 ft | 348 kts | 111° |
| 2026-05-05 09:47 | -34.26582 | 151.44349 | 10719 ft | 367 kts | 111° |
| 2026-05-05 09:47 | -34.27485 | 151.47306 | 10973 ft | 383 kts | 111° |